sensor_id;sensor_type;location;lat;lon;timestamp;P1;durP1;ratioP1;P2;durP2;ratioP2
13698;SDS011;6921;53.642;9.956;2023-07-13T00:01:20;5.25;;;4.25;;
13698;SDS011;6921;53.642;9.956;2023-07-13T00:03:25;4.75;;;4.25;;
13698;SDS011;6921;53.642;9.956;2023-07-13T00:05:27;6.07;;;4.10;;
13698;SDS011;6921;53.642;9.956;2023-07-13T00:07:30;8.07;;;4.43;;
13698;SDS011;6921;53.642;9.956;2023-07-13T00:09:33;6.95;;;4.97;;
13698;SDS011;6921;53.642;9.956;2023-07-13T00:11:37;6.65;;;4.95;;
13698;SDS011;6921;53.642;9.956;2023-07-13T00:13:39;7.15;;;4.35;;
13698;SDS011;6921;53.642;9.956;2023-07-13T00:15:43;9.10;;;4.50;;
13698;SDS011;6921;53.642;9.956;2023-07-13T00:17:49;6.00;;;4.20;;
13698;SDS011;6921;53.642;9.956;2023-07-13T00:19:52;7.38;;;4.38;;
13698;SDS011;6921;53.642;9.956;2023-07-13T00:21:57;5.30;;;4.10;;
13698;SDS011;6921;53.642;9.956;2023-07-13T00:24:00;5.35;;;4.55;;
13698;SDS011;6921;53.642;9.956;2023-07-13T00:26:02;4.57;;;4.18;;
13698;SDS011;6921;53.642;9.956;2023-07-13T00:28:06;4.80;;;4.35;;
13698;SDS011;6921;53.642;9.956;2023-07-13T00:30:10;6.65;;;4.40;;
13698;SDS011;6921;53.642;9.956;2023-07-13T00:32:13;5.97;;;4.13;;
13698;SDS011;6921;53.642;9.956;2023-07-13T00:34:18;5.88;;;4.40;;
13698;SDS011;6921;53.642;9.956;2023-07-13T00:36:21;9.10;;;4.47;;
13698;SDS011;6921;53.642;9.956;2023-07-13T00:38:24;4.80;;;4.30;;
13698;SDS011;6921;53.642;9.956;2023-07-13T00:40:27;5.50;;;4.30;;
13698;SDS011;6921;53.642;9.956;2023-07-13T00:42:31;6.32;;;4.40;;
13698;SDS011;6921;53.642;9.956;2023-07-13T00:44:34;5.50;;;4.10;;
13698;SDS011;6921;53.642;9.956;2023-07-13T00:46:37;6.35;;;4.85;;
13698;SDS011;6921;53.642;9.956;2023-07-13T00:48:40;8.40;;;4.68;;
13698;SDS011;6921;53.642;9.956;2023-07-13T00:50:46;9.20;;;4.70;;
13698;SDS011;6921;53.642;9.956;2023-07-13T00:52:53;6.40;;;4.60;;
13698;SDS011;6921;53.642;9.956;2023-07-13T00:54:59;8.48;;;4.47;;
13698;SDS011;6921;53.642;9.956;2023-07-13T00:57:03;9.10;;;5.03;;
13698;SDS011;6921;53.642;9.956;2023-07-13T00:59:09;7.15;;;4.70;;
13698;SDS011;6921;53.642;9.956;2023-07-13T01:01:14;8.27;;;5.00;;
13698;SDS011;6921;53.642;9.956;2023-07-13T01:03:17;6.18;;;5.07;;
13698;SDS011;6921;53.642;9.956;2023-07-13T01:05:21;5.65;;;4.85;;
13698;SDS011;6921;53.642;9.956;2023-07-13T01:07:26;7.38;;;5.25;;
13698;SDS011;6921;53.642;9.956;2023-07-13T01:09:29;8.45;;;5.22;;
13698;SDS011;6921;53.642;9.956;2023-07-13T01:11:33;9.35;;;5.38;;
13698;SDS011;6921;53.642;9.956;2023-07-13T01:13:37;6.40;;;5.53;;
13698;SDS011;6921;53.642;9.956;2023-07-13T01:15:41;5.95;;;4.93;;
13698;SDS011;6921;53.642;9.956;2023-07-13T01:17:44;7.05;;;5.10;;
13698;SDS011;6921;53.642;9.956;2023-07-13T01:19:47;7.40;;;5.00;;
13698;SDS011;6921;53.642;9.956;2023-07-13T01:21:52;8.32;;;5.38;;
13698;SDS011;6921;53.642;9.956;2023-07-13T01:23:56;8.00;;;5.30;;
13698;SDS011;6921;53.642;9.956;2023-07-13T01:25:59;6.68;;;5.20;;
13698;SDS011;6921;53.642;9.956;2023-07-13T01:28:03;8.05;;;5.00;;
13698;SDS011;6921;53.642;9.956;2023-07-13T01:30:06;7.45;;;5.07;;
13698;SDS011;6921;53.642;9.956;2023-07-13T01:32:10;7.18;;;5.22;;
13698;SDS011;6921;53.642;9.956;2023-07-13T01:34:15;6.60;;;5.70;;
13698;SDS011;6921;53.642;9.956;2023-07-13T01:36:18;6.82;;;5.30;;
13698;SDS011;6921;53.642;9.956;2023-07-13T01:38:23;8.07;;;5.47;;
13698;SDS011;6921;53.642;9.956;2023-07-13T01:40:27;6.68;;;5.97;;
13698;SDS011;6921;53.642;9.956;2023-07-13T01:42:31;8.15;;;6.38;;
13698;SDS011;6921;53.642;9.956;2023-07-13T01:44:34;9.93;;;6.60;;
13698;SDS011;6921;53.642;9.956;2023-07-13T01:46:37;7.32;;;6.35;;
13698;SDS011;6921;53.642;9.956;2023-07-13T01:48:40;9.57;;;7.30;;
13698;SDS011;6921;53.642;9.956;2023-07-13T01:50:43;11.00;;;7.53;;
13698;SDS011;6921;53.642;9.956;2023-07-13T01:52:47;9.55;;;8.48;;
13698;SDS011;6921;53.642;9.956;2023-07-13T01:54:51;9.63;;;8.40;;
13698;SDS011;6921;53.642;9.956;2023-07-13T01:56:54;10.32;;;8.05;;
13698;SDS011;6921;53.642;9.956;2023-07-13T01:58:57;8.57;;;7.53;;
13698;SDS011;6921;53.642;9.956;2023-07-13T02:01:00;9.85;;;7.90;;
13698;SDS011;6921;53.642;9.956;2023-07-13T02:03:03;9.85;;;8.07;;
13698;SDS011;6921;53.642;9.956;2023-07-13T02:05:07;10.07;;;7.97;;
13698;SDS011;6921;53.642;9.956;2023-07-13T02:07:10;9.25;;;7.60;;
13698;SDS011;6921;53.642;9.956;2023-07-13T02:09:14;9.15;;;7.80;;
13698;SDS011;6921;53.642;9.956;2023-07-13T02:11:17;9.52;;;8.00;;
13698;SDS011;6921;53.642;9.956;2023-07-13T02:13:20;10.95;;;8.02;;
13698;SDS011;6921;53.642;9.956;2023-07-13T02:15:23;12.55;;;8.48;;
13698;SDS011;6921;53.642;9.956;2023-07-13T02:17:26;11.25;;;8.05;;
13698;SDS011;6921;53.642;9.956;2023-07-13T02:19:30;12.80;;;8.40;;
13698;SDS011;6921;53.642;9.956;2023-07-13T02:21:33;11.52;;;8.48;;
13698;SDS011;6921;53.642;9.956;2023-07-13T02:23:36;9.10;;;8.23;;
13698;SDS011;6921;53.642;9.956;2023-07-13T02:25:39;10.27;;;8.82;;
13698;SDS011;6921;53.642;9.956;2023-07-13T02:27:44;9.30;;;8.30;;
13698;SDS011;6921;53.642;9.956;2023-07-13T02:29:47;9.75;;;8.75;;
13698;SDS011;6921;53.642;9.956;2023-07-13T02:31:52;9.32;;;8.27;;
13698;SDS011;6921;53.642;9.956;2023-07-13T02:33:55;10.73;;;8.00;;
13698;SDS011;6921;53.642;9.956;2023-07-13T02:35:58;12.80;;;8.90;;
13698;SDS011;6921;53.642;9.956;2023-07-13T02:38:02;12.25;;;9.32;;
13698;SDS011;6921;53.642;9.956;2023-07-13T02:40:05;10.30;;;9.13;;
13698;SDS011;6921;53.642;9.956;2023-07-13T02:42:09;10.43;;;8.98;;
13698;SDS011;6921;53.642;9.956;2023-07-13T02:44:14;11.45;;;9.40;;
13698;SDS011;6921;53.642;9.956;2023-07-13T02:46:17;10.23;;;9.00;;
13698;SDS011;6921;53.642;9.956;2023-07-13T02:48:21;11.10;;;9.05;;
13698;SDS011;6921;53.642;9.956;2023-07-13T02:50:24;10.98;;;9.18;;
13698;SDS011;6921;53.642;9.956;2023-07-13T02:52:27;13.18;;;8.88;;
13698;SDS011;6921;53.642;9.956;2023-07-13T02:54:30;11.73;;;9.75;;
13698;SDS011;6921;53.642;9.956;2023-07-13T02:56:33;12.55;;;9.48;;
13698;SDS011;6921;53.642;9.956;2023-07-13T02:58:37;12.23;;;9.38;;
13698;SDS011;6921;53.642;9.956;2023-07-13T03:00:41;10.05;;;9.05;;
13698;SDS011;6921;53.642;9.956;2023-07-13T03:02:45;10.48;;;9.38;;
13698;SDS011;6921;53.642;9.956;2023-07-13T03:04:48;10.40;;;9.00;;
13698;SDS011;6921;53.642;9.956;2023-07-13T03:06:51;12.57;;;10.35;;
13698;SDS011;6921;53.642;9.956;2023-07-13T03:08:58;14.27;;;9.55;;
13698;SDS011;6921;53.642;9.956;2023-07-13T03:11:03;11.95;;;9.65;;
13698;SDS011;6921;53.642;9.956;2023-07-13T03:13:08;12.18;;;9.23;;
13698;SDS011;6921;53.642;9.956;2023-07-13T03:15:11;10.73;;;9.63;;
13698;SDS011;6921;53.642;9.956;2023-07-13T03:17:15;11.05;;;9.55;;
13698;SDS011;6921;53.642;9.956;2023-07-13T03:19:19;14.02;;;10.00;;
13698;SDS011;6921;53.642;9.956;2023-07-13T03:21:22;12.13;;;10.00;;
13698;SDS011;6921;53.642;9.956;2023-07-13T03:23:25;10.88;;;9.10;;
13698;SDS011;6921;53.642;9.956;2023-07-13T03:25:28;11.52;;;9.85;;
13698;SDS011;6921;53.642;9.956;2023-07-13T03:27:31;11.00;;;9.15;;
13698;SDS011;6921;53.642;9.956;2023-07-13T03:29:34;12.88;;;9.98;;
13698;SDS011;6921;53.642;9.956;2023-07-13T03:31:37;10.90;;;9.55;;
13698;SDS011;6921;53.642;9.956;2023-07-13T03:33:42;12.88;;;9.88;;
13698;SDS011;6921;53.642;9.956;2023-07-13T03:35:45;10.50;;;9.13;;
13698;SDS011;6921;53.642;9.956;2023-07-13T03:37:48;11.65;;;9.48;;
13698;SDS011;6921;53.642;9.956;2023-07-13T03:39:51;11.15;;;9.60;;
13698;SDS011;6921;53.642;9.956;2023-07-13T03:41:54;11.70;;;8.88;;
13698;SDS011;6921;53.642;9.956;2023-07-13T03:43:57;10.07;;;8.90;;
13698;SDS011;6921;53.642;9.956;2023-07-13T03:46:00;13.25;;;8.65;;
13698;SDS011;6921;53.642;9.956;2023-07-13T03:48:03;11.25;;;8.38;;
13698;SDS011;6921;53.642;9.956;2023-07-13T03:50:09;11.43;;;8.93;;
13698;SDS011;6921;53.642;9.956;2023-07-13T03:52:12;11.32;;;8.40;;
13698;SDS011;6921;53.642;9.956;2023-07-13T03:54:15;10.48;;;9.38;;
13698;SDS011;6921;53.642;9.956;2023-07-13T03:56:18;10.73;;;8.65;;
13698;SDS011;6921;53.642;9.956;2023-07-13T03:58:29;9.63;;;8.23;;
13698;SDS011;6921;53.642;9.956;2023-07-13T04:00:34;12.02;;;8.50;;
13698;SDS011;6921;53.642;9.956;2023-07-13T04:02:37;9.60;;;8.50;;
13698;SDS011;6921;53.642;9.956;2023-07-13T04:04:40;11.07;;;8.55;;
13698;SDS011;6921;53.642;9.956;2023-07-13T04:06:45;10.25;;;8.27;;
13698;SDS011;6921;53.642;9.956;2023-07-13T04:08:48;9.13;;;8.20;;
13698;SDS011;6921;53.642;9.956;2023-07-13T04:10:52;9.40;;;8.25;;
13698;SDS011;6921;53.642;9.956;2023-07-13T04:12:55;11.70;;;8.13;;
13698;SDS011;6921;53.642;9.956;2023-07-13T04:14:58;8.65;;;7.85;;
13698;SDS011;6921;53.642;9.956;2023-07-13T04:17:01;8.98;;;7.60;;
13698;SDS011;6921;53.642;9.956;2023-07-13T04:19:05;11.45;;;8.52;;
13698;SDS011;6921;53.642;9.956;2023-07-13T04:21:08;10.05;;;7.93;;
13698;SDS011;6921;53.642;9.956;2023-07-13T04:23:13;9.43;;;7.93;;
13698;SDS011;6921;53.642;9.956;2023-07-13T04:25:16;10.90;;;8.07;;
13698;SDS011;6921;53.642;9.956;2023-07-13T04:27:19;11.10;;;7.22;;
13698;SDS011;6921;53.642;9.956;2023-07-13T04:29:25;10.50;;;7.32;;
13698;SDS011;6921;53.642;9.956;2023-07-13T04:31:28;10.55;;;7.55;;
13698;SDS011;6921;53.642;9.956;2023-07-13T04:33:32;10.65;;;7.53;;
13698;SDS011;6921;53.642;9.956;2023-07-13T04:35:35;10.15;;;7.72;;
13698;SDS011;6921;53.642;9.956;2023-07-13T04:37:38;8.65;;;7.50;;
13698;SDS011;6921;53.642;9.956;2023-07-13T04:39:43;10.98;;;7.82;;
13698;SDS011;6921;53.642;9.956;2023-07-13T04:41:46;11.35;;;7.63;;
13698;SDS011;6921;53.642;9.956;2023-07-13T04:43:49;8.40;;;7.60;;
13698;SDS011;6921;53.642;9.956;2023-07-13T04:45:51;13.35;;;7.53;;
13698;SDS011;6921;53.642;9.956;2023-07-13T04:47:54;9.70;;;7.95;;
13698;SDS011;6921;53.642;9.956;2023-07-13T04:49:58;14.43;;;8.35;;
13698;SDS011;6921;53.642;9.956;2023-07-13T04:52:00;8.60;;;7.65;;
13698;SDS011;6921;53.642;9.956;2023-07-13T04:54:03;9.95;;;8.38;;
13698;SDS011;6921;53.642;9.956;2023-07-13T04:56:09;8.90;;;7.57;;
13698;SDS011;6921;53.642;9.956;2023-07-13T04:58:13;11.23;;;7.90;;
13698;SDS011;6921;53.642;9.956;2023-07-13T05:00:16;13.57;;;7.82;;
13698;SDS011;6921;53.642;9.956;2023-07-13T05:02:20;13.05;;;8.63;;
13698;SDS011;6921;53.642;9.956;2023-07-13T05:04:23;12.77;;;8.13;;
13698;SDS011;6921;53.642;9.956;2023-07-13T05:06:26;14.30;;;7.72;;
13698;SDS011;6921;53.642;9.956;2023-07-13T05:08:29;10.95;;;7.78;;
13698;SDS011;6921;53.642;9.956;2023-07-13T05:10:33;11.15;;;7.82;;
13698;SDS011;6921;53.642;9.956;2023-07-13T05:12:37;14.32;;;7.75;;
13698;SDS011;6921;53.642;9.956;2023-07-13T05:14:40;13.32;;;7.72;;
13698;SDS011;6921;53.642;9.956;2023-07-13T05:16:43;8.30;;;7.38;;
13698;SDS011;6921;53.642;9.956;2023-07-13T05:18:47;13.40;;;7.32;;
13698;SDS011;6921;53.642;9.956;2023-07-13T05:20:56;7.88;;;7.03;;
13698;SDS011;6921;53.642;9.956;2023-07-13T05:23:04;14.05;;;7.85;;
13698;SDS011;6921;53.642;9.956;2023-07-13T05:25:07;10.85;;;7.07;;
13698;SDS011;6921;53.642;9.956;2023-07-13T05:27:09;10.80;;;7.53;;
13698;SDS011;6921;53.642;9.956;2023-07-13T05:29:13;12.65;;;7.30;;
13698;SDS011;6921;53.642;9.956;2023-07-13T05:31:16;15.18;;;7.75;;
13698;SDS011;6921;53.642;9.956;2023-07-13T05:33:20;12.25;;;7.85;;
13698;SDS011;6921;53.642;9.956;2023-07-13T05:35:23;15.18;;;8.30;;
13698;SDS011;6921;53.642;9.956;2023-07-13T05:37:26;13.35;;;7.60;;
13698;SDS011;6921;53.642;9.956;2023-07-13T05:39:30;13.98;;;7.90;;
13698;SDS011;6921;53.642;9.956;2023-07-13T05:41:33;13.98;;;8.25;;
13698;SDS011;6921;53.642;9.956;2023-07-13T05:43:35;12.90;;;7.50;;
13698;SDS011;6921;53.642;9.956;2023-07-13T05:45:39;12.45;;;7.40;;
13698;SDS011;6921;53.642;9.956;2023-07-13T05:47:43;13.50;;;7.85;;
13698;SDS011;6921;53.642;9.956;2023-07-13T05:49:46;13.13;;;7.70;;
13698;SDS011;6921;53.642;9.956;2023-07-13T05:51:50;14.32;;;8.10;;
13698;SDS011;6921;53.642;9.956;2023-07-13T05:53:53;9.43;;;7.47;;
13698;SDS011;6921;53.642;9.956;2023-07-13T05:55:56;14.88;;;7.72;;
13698;SDS011;6921;53.642;9.956;2023-07-13T05:58:02;14.25;;;8.15;;
13698;SDS011;6921;53.642;9.956;2023-07-13T06:00:05;11.82;;;8.75;;
13698;SDS011;6921;53.642;9.956;2023-07-13T06:02:11;11.63;;;7.43;;
13698;SDS011;6921;53.642;9.956;2023-07-13T06:04:14;14.65;;;8.10;;
13698;SDS011;6921;53.642;9.956;2023-07-13T06:06:17;11.27;;;7.50;;
13698;SDS011;6921;53.642;9.956;2023-07-13T06:08:20;10.43;;;8.27;;
13698;SDS011;6921;53.642;9.956;2023-07-13T06:10:23;16.00;;;8.23;;
13698;SDS011;6921;53.642;9.956;2023-07-13T06:12:26;11.07;;;7.70;;
13698;SDS011;6921;53.642;9.956;2023-07-13T06:14:30;11.70;;;8.05;;
13698;SDS011;6921;53.642;9.956;2023-07-13T06:16:33;14.43;;;7.18;;
13698;SDS011;6921;53.642;9.956;2023-07-13T06:18:39;12.40;;;7.30;;
13698;SDS011;6921;53.642;9.956;2023-07-13T06:20:43;12.15;;;7.15;;
13698;SDS011;6921;53.642;9.956;2023-07-13T06:22:46;11.27;;;8.30;;
13698;SDS011;6921;53.642;9.956;2023-07-13T06:24:49;13.30;;;7.68;;
13698;SDS011;6921;53.642;9.956;2023-07-13T06:26:52;17.70;;;8.43;;
13698;SDS011;6921;53.642;9.956;2023-07-13T06:28:55;12.40;;;7.45;;
13698;SDS011;6921;53.642;9.956;2023-07-13T06:30:59;15.95;;;8.43;;
13698;SDS011;6921;53.642;9.956;2023-07-13T06:33:02;12.70;;;8.05;;
13698;SDS011;6921;53.642;9.956;2023-07-13T06:35:07;12.27;;;7.57;;
13698;SDS011;6921;53.642;9.956;2023-07-13T06:37:13;13.75;;;6.45;;
13698;SDS011;6921;53.642;9.956;2023-07-13T06:39:16;13.77;;;6.75;;
13698;SDS011;6921;53.642;9.956;2023-07-13T06:41:19;14.38;;;6.75;;
13698;SDS011;6921;53.642;9.956;2023-07-13T06:43:23;9.55;;;6.63;;
13698;SDS011;6921;53.642;9.956;2023-07-13T06:45:27;9.63;;;6.70;;
13698;SDS011;6921;53.642;9.956;2023-07-13T06:47:30;9.70;;;5.80;;
13698;SDS011;6921;53.642;9.956;2023-07-13T06:49:34;12.95;;;5.95;;
13698;SDS011;6921;53.642;9.956;2023-07-13T06:51:39;14.40;;;5.88;;
13698;SDS011;6921;53.642;9.956;2023-07-13T06:53:42;13.55;;;6.07;;
13698;SDS011;6921;53.642;9.956;2023-07-13T06:55:45;8.05;;;6.55;;
13698;SDS011;6921;53.642;9.956;2023-07-13T06:57:49;12.75;;;5.82;;
13698;SDS011;6921;53.642;9.956;2023-07-13T06:59:52;12.88;;;5.43;;
13698;SDS011;6921;53.642;9.956;2023-07-13T07:01:55;9.60;;;5.35;;
13698;SDS011;6921;53.642;9.956;2023-07-13T07:03:58;10.35;;;5.00;;
13698;SDS011;6921;53.642;9.956;2023-07-13T07:06:10;10.65;;;5.60;;
13698;SDS011;6921;53.642;9.956;2023-07-13T07:08:17;10.55;;;5.18;;
13698;SDS011;6921;53.642;9.956;2023-07-13T07:10:20;13.32;;;5.88;;
13698;SDS011;6921;53.642;9.956;2023-07-13T07:12:24;11.95;;;5.32;;
13698;SDS011;6921;53.642;9.956;2023-07-13T07:14:27;10.43;;;5.40;;
13698;SDS011;6921;53.642;9.956;2023-07-13T07:16:30;8.40;;;5.20;;
13698;SDS011;6921;53.642;9.956;2023-07-13T07:18:33;8.98;;;4.43;;
13698;SDS011;6921;53.642;9.956;2023-07-13T07:20:37;12.82;;;4.68;;
13698;SDS011;6921;53.642;9.956;2023-07-13T07:22:40;11.43;;;4.90;;
13698;SDS011;6921;53.642;9.956;2023-07-13T07:24:44;10.68;;;4.60;;
13698;SDS011;6921;53.642;9.956;2023-07-13T07:26:48;9.80;;;4.30;;
13698;SDS011;6921;53.642;9.956;2023-07-13T07:28:54;11.20;;;4.70;;
13698;SDS011;6921;53.642;9.956;2023-07-13T07:31:00;9.90;;;4.05;;
13698;SDS011;6921;53.642;9.956;2023-07-13T07:33:06;8.20;;;3.85;;
13698;SDS011;6921;53.642;9.956;2023-07-13T07:35:10;11.98;;;4.43;;
13698;SDS011;6921;53.642;9.956;2023-07-13T07:37:13;10.80;;;3.85;;
13698;SDS011;6921;53.642;9.956;2023-07-13T07:39:36;11.15;;;4.65;;
13698;SDS011;6921;53.642;9.956;2023-07-13T07:41:43;11.07;;;3.80;;
13698;SDS011;6921;53.642;9.956;2023-07-13T07:43:56;7.05;;;3.47;;
13698;SDS011;6921;53.642;9.956;2023-07-13T07:46:00;10.70;;;3.70;;
13698;SDS011;6921;53.642;9.956;2023-07-13T07:48:04;11.52;;;4.05;;
13698;SDS011;6921;53.642;9.956;2023-07-13T07:50:08;11.60;;;4.25;;
13698;SDS011;6921;53.642;9.956;2023-07-13T07:52:11;6.85;;;3.80;;
13698;SDS011;6921;53.642;9.956;2023-07-13T07:54:13;8.65;;;4.07;;
13698;SDS011;6921;53.642;9.956;2023-07-13T07:56:24;10.95;;;4.50;;
13698;SDS011;6921;53.642;9.956;2023-07-13T07:58:31;10.73;;;3.95;;
13698;SDS011;6921;53.642;9.956;2023-07-13T08:00:37;10.18;;;3.75;;
13698;SDS011;6921;53.642;9.956;2023-07-13T08:02:44;8.70;;;4.50;;
13698;SDS011;6921;53.642;9.956;2023-07-13T08:04:51;9.32;;;4.00;;
13698;SDS011;6921;53.642;9.956;2023-07-13T08:06:57;7.53;;;3.67;;
13698;SDS011;6921;53.642;9.956;2023-07-13T08:09:00;9.25;;;3.60;;
13698;SDS011;6921;53.642;9.956;2023-07-13T08:11:05;10.77;;;3.67;;
13698;SDS011;6921;53.642;9.956;2023-07-13T08:13:30;9.57;;;3.70;;
13698;SDS011;6921;53.642;9.956;2023-07-13T08:15:34;10.07;;;3.60;;
13698;SDS011;6921;53.642;9.956;2023-07-13T08:17:37;6.78;;;3.08;;
13698;SDS011;6921;53.642;9.956;2023-07-13T08:19:41;6.55;;;3.13;;
13698;SDS011;6921;53.642;9.956;2023-07-13T08:21:44;9.82;;;4.15;;
13698;SDS011;6921;53.642;9.956;2023-07-13T08:23:49;7.53;;;3.25;;
13698;SDS011;6921;53.642;9.956;2023-07-13T08:25:53;5.50;;;3.50;;
13698;SDS011;6921;53.642;9.956;2023-07-13T08:27:56;7.78;;;3.85;;
13698;SDS011;6921;53.642;9.956;2023-07-13T08:30:01;10.02;;;3.75;;
13698;SDS011;6921;53.642;9.956;2023-07-13T08:32:07;8.82;;;3.25;;
13698;SDS011;6921;53.642;9.956;2023-07-13T08:34:11;8.32;;;3.55;;
13698;SDS011;6921;53.642;9.956;2023-07-13T08:36:18;8.40;;;3.78;;
13698;SDS011;6921;53.642;9.956;2023-07-13T08:38:21;7.25;;;3.53;;
13698;SDS011;6921;53.642;9.956;2023-07-13T08:40:25;6.93;;;3.78;;
13698;SDS011;6921;53.642;9.956;2023-07-13T08:42:32;8.38;;;3.28;;
13698;SDS011;6921;53.642;9.956;2023-07-13T08:44:39;6.68;;;3.75;;
13698;SDS011;6921;53.642;9.956;2023-07-13T08:46:50;8.90;;;3.45;;
13698;SDS011;6921;53.642;9.956;2023-07-13T08:48:56;6.85;;;3.63;;
13698;SDS011;6921;53.642;9.956;2023-07-13T08:51:07;8.68;;;3.60;;
13698;SDS011;6921;53.642;9.956;2023-07-13T08:53:15;3.67;;;2.45;;
13698;SDS011;6921;53.642;9.956;2023-07-13T08:55:21;7.90;;;2.63;;
13698;SDS011;6921;53.642;9.956;2023-07-13T08:57:31;6.40;;;3.20;;
13698;SDS011;6921;53.642;9.956;2023-07-13T08:59:37;8.90;;;3.20;;
13698;SDS011;6921;53.642;9.956;2023-07-13T09:01:47;7.03;;;2.90;;
13698;SDS011;6921;53.642;9.956;2023-07-13T09:04:08;6.82;;;2.95;;
13698;SDS011;6921;53.642;9.956;2023-07-13T09:06:17;6.10;;;2.78;;
13698;SDS011;6921;53.642;9.956;2023-07-13T09:08:29;6.30;;;2.78;;
13698;SDS011;6921;53.642;9.956;2023-07-13T09:10:43;6.95;;;2.80;;
13698;SDS011;6921;53.642;9.956;2023-07-13T09:12:55;7.03;;;2.80;;
13698;SDS011;6921;53.642;9.956;2023-07-13T09:15:14;5.68;;;2.80;;
13698;SDS011;6921;53.642;9.956;2023-07-13T09:17:29;4.75;;;2.45;;
13698;SDS011;6921;53.642;9.956;2023-07-13T09:19:35;9.68;;;2.50;;
13698;SDS011;6921;53.642;9.956;2023-07-13T09:21:39;9.70;;;2.83;;
13698;SDS011;6921;53.642;9.956;2023-07-13T09:23:43;4.90;;;2.70;;
13698;SDS011;6921;53.642;9.956;2023-07-13T09:25:47;5.97;;;2.50;;
13698;SDS011;6921;53.642;9.956;2023-07-13T09:27:57;6.80;;;2.88;;
13698;SDS011;6921;53.642;9.956;2023-07-13T09:30:05;5.28;;;2.42;;
13698;SDS011;6921;53.642;9.956;2023-07-13T09:32:24;4.22;;;2.40;;
13698;SDS011;6921;53.642;9.956;2023-07-13T09:34:30;7.03;;;2.22;;
13698;SDS011;6921;53.642;9.956;2023-07-13T09:36:35;5.55;;;2.97;;
13698;SDS011;6921;53.642;9.956;2023-07-13T09:38:38;5.28;;;3.00;;
13698;SDS011;6921;53.642;9.956;2023-07-13T09:40:44;4.88;;;2.75;;
13698;SDS011;6921;53.642;9.956;2023-07-13T09:42:56;5.38;;;2.85;;
13698;SDS011;6921;53.642;9.956;2023-07-13T09:45:01;5.22;;;2.70;;
13698;SDS011;6921;53.642;9.956;2023-07-13T09:47:13;6.40;;;2.80;;
13698;SDS011;6921;53.642;9.956;2023-07-13T09:49:18;6.10;;;2.88;;
13698;SDS011;6921;53.642;9.956;2023-07-13T09:51:28;6.30;;;2.97;;
13698;SDS011;6921;53.642;9.956;2023-07-13T09:53:31;5.18;;;2.70;;
13698;SDS011;6921;53.642;9.956;2023-07-13T09:55:34;5.05;;;2.63;;
13698;SDS011;6921;53.642;9.956;2023-07-13T09:57:39;4.82;;;2.70;;
13698;SDS011;6921;53.642;9.956;2023-07-13T09:59:52;6.78;;;2.97;;
13698;SDS011;6921;53.642;9.956;2023-07-13T10:01:57;4.95;;;2.47;;
13698;SDS011;6921;53.642;9.956;2023-07-13T10:04:02;5.63;;;2.67;;
13698;SDS011;6921;53.642;9.956;2023-07-13T10:06:15;5.75;;;2.85;;
13698;SDS011;6921;53.642;9.956;2023-07-13T10:08:22;4.85;;;2.50;;
13698;SDS011;6921;53.642;9.956;2023-07-13T10:10:29;5.22;;;2.65;;
13698;SDS011;6921;53.642;9.956;2023-07-13T10:12:36;6.53;;;2.95;;
13698;SDS011;6921;53.642;9.956;2023-07-13T10:14:41;5.45;;;2.72;;
13698;SDS011;6921;53.642;9.956;2023-07-13T10:16:45;6.05;;;2.70;;
13698;SDS011;6921;53.642;9.956;2023-07-13T10:18:52;4.93;;;2.67;;
13698;SDS011;6921;53.642;9.956;2023-07-13T10:21:00;6.53;;;2.95;;
13698;SDS011;6921;53.642;9.956;2023-07-13T10:23:34;4.88;;;2.30;;
13698;SDS011;6921;53.642;9.956;2023-07-13T10:25:38;3.05;;;2.00;;
13698;SDS011;6921;53.642;9.956;2023-07-13T10:27:46;5.63;;;2.35;;
13698;SDS011;6921;53.642;9.956;2023-07-13T10:29:52;5.75;;;2.95;;
13698;SDS011;6921;53.642;9.956;2023-07-13T10:32:01;4.80;;;2.10;;
13698;SDS011;6921;53.642;9.956;2023-07-13T10:34:07;4.18;;;2.28;;
13698;SDS011;6921;53.642;9.956;2023-07-13T10:36:14;5.20;;;2.40;;
13698;SDS011;6921;53.642;9.956;2023-07-13T10:38:22;3.75;;;2.78;;
13698;SDS011;6921;53.642;9.956;2023-07-13T10:40:34;4.18;;;2.13;;
13698;SDS011;6921;53.642;9.956;2023-07-13T10:42:40;4.90;;;2.35;;
13698;SDS011;6921;53.642;9.956;2023-07-13T10:44:48;4.35;;;2.38;;
13698;SDS011;6921;53.642;9.956;2023-07-13T10:46:52;4.47;;;2.40;;
13698;SDS011;6921;53.642;9.956;2023-07-13T10:49:01;5.20;;;2.30;;
13698;SDS011;6921;53.642;9.956;2023-07-13T10:51:09;6.53;;;2.35;;
13698;SDS011;6921;53.642;9.956;2023-07-13T10:53:20;4.10;;;2.20;;
13698;SDS011;6921;53.642;9.956;2023-07-13T10:55:37;4.15;;;1.75;;
13698;SDS011;6921;53.642;9.956;2023-07-13T10:57:42;4.95;;;2.20;;
13698;SDS011;6921;53.642;9.956;2023-07-13T10:59:46;3.47;;;2.00;;
13698;SDS011;6921;53.642;9.956;2023-07-13T11:01:54;4.15;;;2.05;;
13698;SDS011;6921;53.642;9.956;2023-07-13T11:03:59;4.78;;;2.30;;
13698;SDS011;6921;53.642;9.956;2023-07-13T11:06:07;5.22;;;2.42;;
13698;SDS011;6921;53.642;9.956;2023-07-13T11:08:16;2.35;;;1.85;;
13698;SDS011;6921;53.642;9.956;2023-07-13T11:10:47;5.10;;;2.40;;
13698;SDS011;6921;53.642;9.956;2023-07-13T11:12:52;7.32;;;2.30;;
13698;SDS011;6921;53.642;9.956;2023-07-13T11:15:07;3.42;;;2.00;;
13698;SDS011;6921;53.642;9.956;2023-07-13T11:19:40;3.92;;;1.98;;
13698;SDS011;6921;53.642;9.956;2023-07-13T11:24:14;7.05;;;2.17;;
13698;SDS011;6921;53.642;9.956;2023-07-13T11:28:45;4.53;;;1.80;;
13698;SDS011;6921;53.642;9.956;2023-07-13T11:30:59;3.90;;;2.00;;
13698;SDS011;6921;53.642;9.956;2023-07-13T11:33:17;3.50;;;1.50;;
13698;SDS011;6921;53.642;9.956;2023-07-13T11:35:24;5.25;;;1.60;;
13698;SDS011;6921;53.642;9.956;2023-07-13T11:37:29;3.53;;;1.65;;
13698;SDS011;6921;53.642;9.956;2023-07-13T11:39:34;4.82;;;1.50;;
13698;SDS011;6921;53.642;9.956;2023-07-13T11:41:50;2.80;;;1.70;;
13698;SDS011;6921;53.642;9.956;2023-07-13T11:44:02;2.95;;;1.60;;
13698;SDS011;6921;53.642;9.956;2023-07-13T11:46:19;2.03;;;1.50;;
13698;SDS011;6921;53.642;9.956;2023-07-13T11:48:26;2.75;;;1.63;;
13698;SDS011;6921;53.642;9.956;2023-07-13T11:50:33;5.10;;;1.70;;
13698;SDS011;6921;53.642;9.956;2023-07-13T11:52:39;2.45;;;1.50;;
13698;SDS011;6921;53.642;9.956;2023-07-13T11:54:46;3.17;;;1.45;;
13698;SDS011;6921;53.642;9.956;2023-07-13T11:56:55;4.22;;;1.70;;
13698;SDS011;6921;53.642;9.956;2023-07-13T11:59:11;3.08;;;1.60;;
13698;SDS011;6921;53.642;9.956;2023-07-13T12:01:19;4.72;;;1.90;;
13698;SDS011;6921;53.642;9.956;2023-07-13T12:03:25;2.85;;;1.80;;
13698;SDS011;6921;53.642;9.956;2023-07-13T12:05:32;3.72;;;1.65;;
13698;SDS011;6921;53.642;9.956;2023-07-13T12:07:39;5.35;;;1.67;;
13698;SDS011;6921;53.642;9.956;2023-07-13T12:09:42;5.00;;;1.75;;
13698;SDS011;6921;53.642;9.956;2023-07-13T12:11:46;4.13;;;1.80;;
13698;SDS011;6921;53.642;9.956;2023-07-13T12:13:51;2.92;;;1.50;;
13698;SDS011;6921;53.642;9.956;2023-07-13T12:15:55;5.30;;;2.00;;
13698;SDS011;6921;53.642;9.956;2023-07-13T12:17:59;5.07;;;1.67;;
13698;SDS011;6921;53.642;9.956;2023-07-13T12:20:10;4.00;;;2.22;;
13698;SDS011;6921;53.642;9.956;2023-07-13T12:22:23;4.00;;;2.28;;
13698;SDS011;6921;53.642;9.956;2023-07-13T12:24:26;5.45;;;2.40;;
13698;SDS011;6921;53.642;9.956;2023-07-13T12:26:30;7.22;;;3.03;;
13698;SDS011;6921;53.642;9.956;2023-07-13T12:28:35;7.40;;;2.65;;
13698;SDS011;6921;53.642;9.956;2023-07-13T12:30:41;3.70;;;2.78;;
13698;SDS011;6921;53.642;9.956;2023-07-13T12:32:54;4.32;;;2.45;;
13698;SDS011;6921;53.642;9.956;2023-07-13T12:35:07;4.75;;;2.13;;
13698;SDS011;6921;53.642;9.956;2023-07-13T12:37:16;4.03;;;2.63;;
13698;SDS011;6921;53.642;9.956;2023-07-13T12:39:20;3.95;;;2.70;;
13698;SDS011;6921;53.642;9.956;2023-07-13T12:41:25;3.25;;;2.70;;
13698;SDS011;6921;53.642;9.956;2023-07-13T12:43:28;4.57;;;2.97;;
13698;SDS011;6921;53.642;9.956;2023-07-13T12:45:38;5.28;;;2.72;;
13698;SDS011;6921;53.642;9.956;2023-07-13T12:47:57;6.03;;;3.45;;
13698;SDS011;6921;53.642;9.956;2023-07-13T12:50:12;5.50;;;3.40;;